createdAt,value
2019-03-23T00:00:40.553Z,40.00
2019-03-23T00:03:08.922Z,40.33
2019-03-23T00:05:37.329Z,40.53
2019-03-23T00:08:05.714Z,39.60
2019-03-23T00:10:34.120Z,39.03
2019-03-23T00:13:02.565Z,39.00
2019-03-23T00:15:30.955Z,38.17
2019-03-23T00:17:59.365Z,39.03
2019-03-23T00:20:27.767Z,38.13
2019-03-23T00:22:56.157Z,39.30
2019-03-23T00:25:24.568Z,39.80
2019-03-23T00:27:52.995Z,38.23
2019-03-23T00:30:21.383Z,35.77
2019-03-23T00:32:49.790Z,37.47
2019-03-23T00:35:18.208Z,36.07
2019-03-23T00:37:46.652Z,35.23
2019-03-23T00:40:15.063Z,35.40
2019-03-23T00:42:43.577Z,34.73
2019-03-23T00:45:11.936Z,36.10
2019-03-23T00:47:40.342Z,35.53
2019-03-23T00:50:09.157Z,35.60
2019-03-23T00:52:37.573Z,34.93
2019-03-23T00:55:07.093Z,35.17
2019-03-23T00:57:35.491Z,35.57
2019-03-23T01:00:06.690Z,35.87
2019-03-23T01:02:35.091Z,36.00
2019-03-23T01:05:04.467Z,33.77
2019-03-23T01:07:32.918Z,36.27
2019-03-23T01:10:01.344Z,36.00
2019-03-23T01:12:29.751Z,35.67
2019-03-23T01:14:58.158Z,35.57
2019-03-23T01:17:26.570Z,36.40
2019-03-23T01:19:55.026Z,36.63
2019-03-23T01:22:23.447Z,36.40
2019-03-23T01:24:51.822Z,36.57
2019-03-23T01:27:20.234Z,38.40
2019-03-23T01:29:48.631Z,37.37
2019-03-23T01:32:17.028Z,36.10
2019-03-23T01:34:45.438Z,37.50
2019-03-23T01:37:13.830Z,36.77
2019-03-23T01:39:42.248Z,35.50
2019-03-23T01:42:10.650Z,34.83
2019-03-23T01:44:39.059Z,37.13
2019-03-23T01:47:09.427Z,34.83
2019-03-23T01:49:37.844Z,35.07
2019-03-23T01:52:06.247Z,34.30
2019-03-23T01:54:34.630Z,34.07
2019-03-23T01:57:03.050Z,34.60
2019-03-23T01:59:31.432Z,33.37
2019-03-23T02:01:59.838Z,34.63
2019-03-23T02:04:28.224Z,34.53
2019-03-23T02:06:56.607Z,35.43
2019-03-23T02:09:25.117Z,35.47
2019-03-23T02:11:53.491Z,36.30
2019-03-23T02:14:21.897Z,34.80
2019-03-23T02:16:50.288Z,34.30
2019-03-23T02:19:18.685Z,34.67
2019-03-23T02:21:47.172Z,35.53
2019-03-23T02:24:15.557Z,35.57
2019-03-23T02:26:44.062Z,37.17
2019-03-23T02:29:12.457Z,39.27
2019-03-23T02:31:40.860Z,36.47
2019-03-23T02:34:09.236Z,38.83
2019-03-23T02:36:37.634Z,37.33
2019-03-23T02:39:06.476Z,37.03
2019-03-23T02:41:34.866Z,36.77
2019-03-23T02:44:03.280Z,37.73
2019-03-23T02:46:31.688Z,38.03
2019-03-23T02:49:00.095Z,37.27
2019-03-23T02:51:28.475Z,37.27
2019-03-23T02:53:56.885Z,40.13
2019-03-23T02:56:25.299Z,37.70
2019-03-23T02:58:53.708Z,40.07
2019-03-23T03:01:22.100Z,40.63
2019-03-23T03:03:50.497Z,39.33
2019-03-23T03:06:18.932Z,37.23
2019-03-23T03:08:47.343Z,39.57
2019-03-23T03:11:15.726Z,39.03
2019-03-23T03:13:44.127Z,39.57
2019-03-23T03:16:12.503Z,38.87
2019-03-23T03:18:40.967Z,38.97
2019-03-23T03:21:09.348Z,37.83
2019-03-23T03:23:37.753Z,35.43
2019-03-23T03:26:06.136Z,36.73
2019-03-23T03:28:34.891Z,36.63
2019-03-23T03:31:03.234Z,36.10
2019-03-23T03:33:31.644Z,38.43
2019-03-23T03:36:00.042Z,36.97
2019-03-23T03:38:28.447Z,37.83
2019-03-23T03:40:56.851Z,36.90
2019-03-23T03:43:25.249Z,37.43
2019-03-23T03:45:53.658Z,36.63
2019-03-23T03:48:22.066Z,37.50
2019-03-23T03:50:50.474Z,35.77
2019-03-23T03:53:18.890Z,37.20
2019-03-23T03:55:47.454Z,36.67
2019-03-23T03:58:15.871Z,36.20
2019-03-23T04:00:44.286Z,37.10
2019-03-23T04:03:12.664Z,36.53
2019-03-23T04:05:41.075Z,37.00
2019-03-23T04:08:11.564Z,34.73
2019-03-23T04:10:39.519Z,34.70
2019-03-23T04:13:07.890Z,34.00
2019-03-23T04:15:36.304Z,33.47
2019-03-23T04:18:04.741Z,35.37
2019-03-23T04:20:33.143Z,34.27
2019-03-23T04:23:01.543Z,33.73
2019-03-23T04:25:29.945Z,32.60
2019-03-23T04:27:58.342Z,32.73
2019-03-23T04:30:26.731Z,33.80
2019-03-23T04:32:55.103Z,31.93
2019-03-23T04:35:23.598Z,32.50
2019-03-23T04:37:51.984Z,32.23
2019-03-23T04:40:20.402Z,32.07
2019-03-23T04:42:48.785Z,31.93
2019-03-23T04:45:17.170Z,32.33
2019-03-23T04:47:45.586Z,30.63
2019-03-23T04:50:13.978Z,32.10
2019-03-23T04:52:42.439Z,30.17
2019-03-23T04:55:11.891Z,30.83
2019-03-23T04:57:40.451Z,31.37
2019-03-23T05:00:14.686Z,31.73
2019-03-23T05:02:43.099Z,31.27
2019-03-23T05:05:11.515Z,31.70
2019-03-23T05:07:39.982Z,29.63
2019-03-23T05:10:08.885Z,30.27
2019-03-23T05:12:37.273Z,29.63
2019-03-23T05:15:06.824Z,28.80
2019-03-23T05:17:35.642Z,28.70
2019-03-23T05:20:09.215Z,29.67
2019-03-23T05:22:37.728Z,28.37
2019-03-23T05:25:06.516Z,27.23
2019-03-23T05:27:34.894Z,28.73
2019-03-23T05:30:04.357Z,28.03
2019-03-23T05:32:32.759Z,29.80
2019-03-23T05:35:01.144Z,27.80
2019-03-23T05:37:29.565Z,28.30
2019-03-23T05:39:57.950Z,27.17
2019-03-23T05:42:26.398Z,28.70
2019-03-23T05:44:54.752Z,28.27
2019-03-23T05:47:23.159Z,27.47
2019-03-23T05:49:51.563Z,28.07
2019-03-23T05:52:19.964Z,27.83
2019-03-23T05:54:48.377Z,28.63
2019-03-23T05:57:16.783Z,28.07
2019-03-23T05:59:45.263Z,27.10
2019-03-23T06:02:13.607Z,25.80
2019-03-23T06:04:42.027Z,28.30
2019-03-23T06:07:12.412Z,29.97
2019-03-23T06:09:40.798Z,27.37
2019-03-23T06:12:09.221Z,27.80
2019-03-23T06:14:37.655Z,29.00
2019-03-23T06:17:06.036Z,28.47
2019-03-23T06:19:34.457Z,28.93
2019-03-23T06:22:02.871Z,29.40
2019-03-23T06:24:31.278Z,29.50
2019-03-23T06:26:59.662Z,28.80
2019-03-23T06:29:28.068Z,29.50
2019-03-23T06:31:56.471Z,29.47
2019-03-23T06:34:24.925Z,29.50
2019-03-23T06:36:53.336Z,28.80
2019-03-23T06:39:21.789Z,29.57
2019-03-23T06:41:50.218Z,29.80
2019-03-23T06:44:18.598Z,29.90
2019-03-23T06:46:47.015Z,29.10
2019-03-23T06:49:15.398Z,30.00
2019-03-23T06:51:43.818Z,29.30
2019-03-23T06:54:12.196Z,29.37
2019-03-23T06:56:40.574Z,29.40
2019-03-23T06:59:08.984Z,28.73
2019-03-23T07:01:37.425Z,28.90
2019-03-23T07:04:05.835Z,28.43
2019-03-23T07:06:34.331Z,30.00
2019-03-23T07:09:02.803Z,28.97
2019-03-23T07:11:31.320Z,29.90
2019-03-23T07:13:59.700Z,29.30
2019-03-23T07:16:28.140Z,27.43
2019-03-23T07:18:56.546Z,27.47
2019-03-23T07:21:24.923Z,28.60
2019-03-23T07:23:53.320Z,27.77
2019-03-23T07:26:21.694Z,28.13
2019-03-23T07:28:50.117Z,28.27
2019-03-23T07:31:18.490Z,28.73
2019-03-23T07:33:46.922Z,28.00
2019-03-23T07:36:15.326Z,29.50
2019-03-23T07:38:43.738Z,28.40
2019-03-23T07:41:12.134Z,27.80
2019-03-23T07:43:40.542Z,27.60
2019-03-23T07:46:08.933Z,27.97
2019-03-23T07:48:37.319Z,27.73
2019-03-23T07:51:05.745Z,27.23
2019-03-23T07:53:34.109Z,26.80
2019-03-23T07:56:02.517Z,27.37
2019-03-23T07:58:30.988Z,27.37
2019-03-23T08:00:59.394Z,25.43
2019-03-23T08:03:27.784Z,25.07
2019-03-23T08:05:56.182Z,26.60
2019-03-23T08:08:24.584Z,24.70
2019-03-23T08:10:52.978Z,25.17
2019-03-23T08:13:21.437Z,25.60
2019-03-23T08:15:49.886Z,24.73
2019-03-23T08:18:18.311Z,25.90
2019-03-23T08:20:46.704Z,25.70
2019-03-23T08:23:15.097Z,24.43
2019-03-23T08:25:43.504Z,24.63
2019-03-23T08:28:11.870Z,24.13
2019-03-23T08:30:40.284Z,25.20
2019-03-23T08:33:08.662Z,25.13
2019-03-23T08:35:37.087Z,25.13
2019-03-23T08:38:05.481Z,24.27
2019-03-23T08:40:35.654Z,25.30
2019-03-23T08:43:03.982Z,23.90
2019-03-23T08:45:32.363Z,23.60
2019-03-23T08:48:00.773Z,25.07
2019-03-23T08:50:29.151Z,23.50
2019-03-23T08:52:57.545Z,24.63
2019-03-23T08:55:25.958Z,23.37
2019-03-23T08:57:54.427Z,21.97
2019-03-23T09:00:22.839Z,21.17
2019-03-23T09:02:51.219Z,21.87
2019-03-23T09:05:19.627Z,22.50
2019-03-23T09:07:48.002Z,21.00
2019-03-23T09:10:16.425Z,21.40
2019-03-23T09:12:44.808Z,20.73
2019-03-23T09:15:13.192Z,21.50
2019-03-23T09:17:41.620Z,22.83
2019-03-23T09:20:12.073Z,22.50
2019-03-23T09:22:40.471Z,20.97
2019-03-23T09:25:08.843Z,18.97
2019-03-23T09:27:37.386Z,20.07
2019-03-23T09:30:10.839Z,18.53
2019-03-23T09:32:39.236Z,19.27
2019-03-23T09:35:07.657Z,19.03
2019-03-23T09:37:38.059Z,18.47
2019-03-23T09:40:11.023Z,19.87
2019-03-23T09:42:36.929Z,18.70
2019-03-23T09:45:07.463Z,18.17
2019-03-23T09:47:35.940Z,17.37
2019-03-23T09:50:06.512Z,16.80
2019-03-23T09:52:34.914Z,15.00
2019-03-23T09:55:03.371Z,13.13
2019-03-23T09:57:31.774Z,12.43
2019-03-23T10:00:00.316Z,12.07
2019-03-23T10:02:28.669Z,10.40
2019-03-23T10:04:57.042Z,9.57
2019-03-23T10:07:25.432Z,10.00
2019-03-23T10:09:53.845Z,9.17
2019-03-23T10:12:22.220Z,9.30
2019-03-23T10:14:50.622Z,8.80
2019-03-23T10:17:20.042Z,8.80
2019-03-23T10:19:48.965Z,7.47
2019-03-23T10:22:17.318Z,7.90
2019-03-23T10:24:47.150Z,6.60
2019-03-23T10:27:15.714Z,6.03
2019-03-23T10:29:44.183Z,6.07
2019-03-23T10:32:12.598Z,5.33
2019-03-23T10:34:40.976Z,4.60
2019-03-23T10:37:09.378Z,4.50
2019-03-23T10:39:37.841Z,5.27
2019-03-23T10:42:06.354Z,3.97
2019-03-23T10:44:34.773Z,4.37
2019-03-23T10:47:03.152Z,3.53
2019-03-23T10:49:31.636Z,4.23
2019-03-23T10:52:00.014Z,3.57
2019-03-23T10:54:28.437Z,3.33
2019-03-23T10:56:56.915Z,3.47
2019-03-23T10:59:25.467Z,3.10
2019-03-23T11:01:53.850Z,3.97
2019-03-23T11:04:22.711Z,3.07
2019-03-23T11:06:52.088Z,3.17
2019-03-23T11:09:20.498Z,3.17
2019-03-23T11:11:48.928Z,3.60
2019-03-23T11:14:17.352Z,3.17
2019-03-23T11:16:45.738Z,3.23
2019-03-23T11:19:14.142Z,3.20
2019-03-23T11:21:42.551Z,3.30
2019-03-23T11:24:10.971Z,3.83
2019-03-23T11:26:39.358Z,3.77
2019-03-23T11:29:08.579Z,3.03
2019-03-23T11:31:37.059Z,3.20
2019-03-23T11:34:05.467Z,3.33
2019-03-23T11:36:33.859Z,3.13
2019-03-23T11:39:02.269Z,3.33
2019-03-23T11:41:30.743Z,3.17
2019-03-23T11:43:59.123Z,3.33
2019-03-23T11:46:27.616Z,3.60
2019-03-23T11:48:55.990Z,3.00
2019-03-23T11:51:24.444Z,3.63
2019-03-23T11:53:52.847Z,3.80
2019-03-23T11:56:21.334Z,3.93
2019-03-23T11:58:49.711Z,4.07
2019-03-23T12:01:18.165Z,3.57
2019-03-23T12:03:46.521Z,3.60
2019-03-23T12:06:14.928Z,2.90
2019-03-23T12:08:43.383Z,4.00
2019-03-23T12:11:11.787Z,3.60
2019-03-23T12:13:40.199Z,3.97
2019-03-23T12:16:08.580Z,3.70
2019-03-23T12:18:37.034Z,3.77
2019-03-23T12:21:05.516Z,3.57
2019-03-23T12:23:33.936Z,3.17
2019-03-23T12:26:02.380Z,3.30
2019-03-23T12:28:30.831Z,3.50
2019-03-23T12:30:59.259Z,3.33
2019-03-23T12:33:27.749Z,3.40
2019-03-23T12:35:56.308Z,2.80
2019-03-23T12:38:24.613Z,2.93
2019-03-23T12:40:53.030Z,3.60
2019-03-23T12:43:21.408Z,2.67
2019-03-23T12:45:49.782Z,2.87
2019-03-23T12:48:18.178Z,3.00
2019-03-23T12:50:46.575Z,2.20
2019-03-23T12:53:14.974Z,3.20
2019-03-23T12:55:45.925Z,3.20
2019-03-23T12:58:14.314Z,2.63
2019-03-23T13:00:42.698Z,2.57
2019-03-23T13:03:11.098Z,2.43
2019-03-23T13:05:39.494Z,3.40
2019-03-23T13:08:07.877Z,2.50
2019-03-23T13:10:36.334Z,2.80
2019-03-23T13:13:04.699Z,2.77
2019-03-23T13:15:33.090Z,3.40
2019-03-23T13:18:03.054Z,2.40
2019-03-23T13:20:31.734Z,2.90
2019-03-23T13:23:00.188Z,2.17
2019-03-23T13:25:28.585Z,2.40
2019-03-23T13:27:56.981Z,2.50
2019-03-23T13:30:25.384Z,3.00
2019-03-23T13:32:53.794Z,3.70
2019-03-23T13:35:22.187Z,2.50
2019-03-23T13:37:50.596Z,2.93
2019-03-23T13:40:19.010Z,2.50
2019-03-23T13:42:47.425Z,2.20
2019-03-23T13:45:15.826Z,3.57
2019-03-23T13:47:44.378Z,2.50
2019-03-23T13:50:12.946Z,3.07
2019-03-23T13:52:41.367Z,2.60
2019-03-23T13:55:24.221Z,2.70
2019-03-23T13:57:52.694Z,2.50
2019-03-23T14:00:21.085Z,2.80
2019-03-23T14:02:49.553Z,2.87
2019-03-23T14:05:17.931Z,3.20
2019-03-23T14:07:47.305Z,2.33
2019-03-23T14:10:15.686Z,2.60
2019-03-23T14:12:44.073Z,2.93
2019-03-23T14:15:12.480Z,2.83
2019-03-23T14:17:40.860Z,3.50
2019-03-23T14:20:09.279Z,3.10
2019-03-23T14:22:37.698Z,2.80
2019-03-23T14:25:07.326Z,3.13
2019-03-23T14:27:35.719Z,2.73
2019-03-23T14:30:08.244Z,2.77
2019-03-23T14:32:36.641Z,2.73
2019-03-23T14:35:06.065Z,2.53
2019-03-23T14:37:34.471Z,4.23
2019-03-23T14:40:02.965Z,3.73
2019-03-23T14:42:31.443Z,3.70
2019-03-23T14:44:59.825Z,2.83
2019-03-23T14:47:28.239Z,3.17
2019-03-23T14:49:56.619Z,2.60
2019-03-23T14:52:25.056Z,3.70
2019-03-23T14:54:53.531Z,2.13
2019-03-23T14:57:21.914Z,2.93
2019-03-23T14:59:50.310Z,2.60
2019-03-23T15:02:18.692Z,3.00
2019-03-23T15:04:47.118Z,2.90
2019-03-23T15:07:15.510Z,3.90
2019-03-23T15:09:43.927Z,3.37
2019-03-23T15:12:15.255Z,2.40
2019-03-23T15:14:42.370Z,2.50
2019-03-23T15:17:10.770Z,2.87
2019-03-23T15:19:39.152Z,3.03
2019-03-23T15:22:07.560Z,2.80
2019-03-23T15:24:35.977Z,3.10
2019-03-23T15:27:04.369Z,3.70
2019-03-23T15:29:32.855Z,3.00
2019-03-23T15:32:01.230Z,2.83
2019-03-23T15:34:29.626Z,2.87
2019-03-23T15:36:58.014Z,2.57
2019-03-23T15:39:26.410Z,2.90
2019-03-23T15:41:54.848Z,2.80
2019-03-23T15:44:23.257Z,2.50
2019-03-23T15:46:51.665Z,2.77
2019-03-23T15:49:20.116Z,2.80
2019-03-23T15:51:48.528Z,2.80
2019-03-23T15:54:16.903Z,2.50
2019-03-23T15:56:45.318Z,2.47
2019-03-23T15:59:13.772Z,2.80
2019-03-23T16:01:42.158Z,2.70
2019-03-23T16:04:10.601Z,2.47
2019-03-23T16:06:39.116Z,2.87
2019-03-23T16:09:07.535Z,2.70
2019-03-23T16:11:35.919Z,3.30
2019-03-23T16:14:04.292Z,3.00
2019-03-23T16:16:33.678Z,2.70
2019-03-23T16:19:02.062Z,3.50
2019-03-23T16:21:30.549Z,3.53
2019-03-23T16:23:58.938Z,3.03
2019-03-23T16:26:27.332Z,3.00
2019-03-23T16:28:55.758Z,3.03
2019-03-23T16:31:24.198Z,3.97
2019-03-23T16:33:52.570Z,2.50
2019-03-23T16:36:21.055Z,2.27
2019-03-23T16:38:49.507Z,2.53
2019-03-23T16:41:17.906Z,2.53
2019-03-23T16:43:46.306Z,3.20
2019-03-23T16:46:14.705Z,3.20
2019-03-23T16:48:43.141Z,3.20
2019-03-23T16:51:11.499Z,3.10
2019-03-23T16:53:39.879Z,3.20
2019-03-23T16:56:08.294Z,4.00
2019-03-23T16:58:36.758Z,4.37
2019-03-23T17:01:05.153Z,2.83
2019-03-23T17:03:33.648Z,3.33
2019-03-23T17:06:02.072Z,2.17
2019-03-23T17:08:30.490Z,2.83
2019-03-23T17:10:58.871Z,2.80
2019-03-23T17:13:27.275Z,2.70
2019-03-23T17:15:55.661Z,3.10
2019-03-23T17:18:24.152Z,2.50
2019-03-23T17:20:52.555Z,2.93
2019-03-23T17:23:21.014Z,2.43
2019-03-23T17:25:49.407Z,2.70
2019-03-23T17:28:17.775Z,2.60
2019-03-23T17:30:46.188Z,2.17
2019-03-23T17:33:14.558Z,2.77
2019-03-23T17:35:42.975Z,2.80
2019-03-23T17:38:11.393Z,2.87
2019-03-23T17:40:39.771Z,3.23
2019-03-23T17:43:08.184Z,3.50
2019-03-23T17:45:36.603Z,2.40
2019-03-23T17:48:04.986Z,2.70
2019-03-23T17:50:33.398Z,3.00
2019-03-23T17:53:01.809Z,3.70
2019-03-23T17:55:30.186Z,3.50
2019-03-23T17:57:58.589Z,3.03
2019-03-23T18:00:27.164Z,2.87
2019-03-23T18:02:55.578Z,3.43
2019-03-23T18:05:24.042Z,2.93
2019-03-23T18:07:52.459Z,3.83
2019-03-23T18:10:20.906Z,3.10
2019-03-23T18:12:49.297Z,3.80
2019-03-23T18:15:17.703Z,3.50
2019-03-23T18:17:46.183Z,3.90
2019-03-23T18:20:14.597Z,3.40
2019-03-23T18:22:42.970Z,3.37
2019-03-23T18:25:11.416Z,3.43
2019-03-23T18:27:39.794Z,3.53
2019-03-23T18:30:32.695Z,2.90
2019-03-23T18:33:01.086Z,4.47
2019-03-23T18:35:29.482Z,4.10
2019-03-23T18:37:57.886Z,4.73
2019-03-23T18:40:26.281Z,4.20
2019-03-23T18:42:54.675Z,5.57
2019-03-23T18:45:23.097Z,5.03
2019-03-23T18:47:51.478Z,5.07
2019-03-23T18:50:19.855Z,4.53
2019-03-23T18:52:48.233Z,4.43
2019-03-23T18:55:16.627Z,4.00
2019-03-23T18:57:45.035Z,4.10
2019-03-23T19:00:33.908Z,4.07
2019-03-23T19:03:02.648Z,4.23
2019-03-23T19:05:31.037Z,4.30
2019-03-23T19:07:59.444Z,4.60
2019-03-23T19:10:27.833Z,5.03
2019-03-23T19:12:56.292Z,4.60
2019-03-23T19:15:24.671Z,3.83
2019-03-23T19:17:53.120Z,4.60
2019-03-23T19:20:21.555Z,3.63
2019-03-23T19:22:49.951Z,4.70
2019-03-23T19:25:18.588Z,5.20
2019-03-23T19:27:49.159Z,5.57
2019-03-23T19:30:17.210Z,4.93
2019-03-23T19:32:45.597Z,4.43
2019-03-23T19:35:13.992Z,4.83
2019-03-23T19:37:42.393Z,5.63
2019-03-23T19:40:10.796Z,4.97
2019-03-23T19:42:39.217Z,6.20
2019-03-23T19:45:07.606Z,6.17
2019-03-23T19:47:35.989Z,5.70
2019-03-23T19:50:06.223Z,5.33
2019-03-23T19:52:34.615Z,5.13
2019-03-23T19:55:03.186Z,5.00
2019-03-23T19:57:31.591Z,4.90
2019-03-23T19:59:59.984Z,4.93
2019-03-23T20:02:28.391Z,4.80
2019-03-23T20:04:56.876Z,5.00
2019-03-23T20:07:32.697Z,5.10
2019-03-23T20:09:55.296Z,4.80
2019-03-23T20:12:23.672Z,5.03
2019-03-23T20:14:52.073Z,5.73
2019-03-23T20:17:20.484Z,4.80
2019-03-23T20:19:48.867Z,4.60
2019-03-23T20:22:17.258Z,5.07
2019-03-23T20:24:45.651Z,4.00
2019-03-23T20:27:14.048Z,4.83
2019-03-23T20:29:42.428Z,4.53
2019-03-23T20:32:10.835Z,4.90
2019-03-23T20:34:39.223Z,5.60
2019-03-23T20:37:08.431Z,5.73
2019-03-23T20:39:37.165Z,5.47
2019-03-23T20:42:05.614Z,5.17
2019-03-23T20:44:34.080Z,5.63
2019-03-23T20:47:02.392Z,5.17
2019-03-23T20:49:30.791Z,5.10
2019-03-23T20:51:59.194Z,5.07
2019-03-23T20:54:27.659Z,5.90
2019-03-23T20:56:56.043Z,5.03
2019-03-23T20:59:24.519Z,5.50
2019-03-23T21:01:52.903Z,5.10
2019-03-23T21:04:21.387Z,5.43
2019-03-23T21:06:49.779Z,5.10
2019-03-23T21:09:18.216Z,4.87
2019-03-23T21:11:46.605Z,5.07
2019-03-23T21:14:20.246Z,5.80
2019-03-23T21:16:45.101Z,5.07
2019-03-23T21:19:13.474Z,4.53
2019-03-23T21:21:41.875Z,4.70
2019-03-23T21:24:10.270Z,5.43
2019-03-23T21:26:38.679Z,5.17
2019-03-23T21:29:07.089Z,5.53
2019-03-23T21:31:35.458Z,5.03
2019-03-23T21:34:03.850Z,5.27
2019-03-23T21:36:32.224Z,5.57
2019-03-23T21:39:00.630Z,5.30
2019-03-23T21:41:29.023Z,5.57
2019-03-23T21:43:57.429Z,5.67
2019-03-23T21:46:25.834Z,5.43
2019-03-23T21:48:54.219Z,5.40
2019-03-23T21:51:22.621Z,5.07
2019-03-23T21:53:51.011Z,4.97
2019-03-23T21:56:19.423Z,4.53
2019-03-23T21:58:47.838Z,4.50
2019-03-23T22:01:16.210Z,4.80
2019-03-23T22:03:44.618Z,5.13
2019-03-23T22:06:12.991Z,5.40
2019-03-23T22:08:41.366Z,5.00
2019-03-23T22:11:09.767Z,4.93
2019-03-23T22:13:38.235Z,4.50
2019-03-23T22:16:06.619Z,5.43
2019-03-23T22:18:35.027Z,4.47
2019-03-23T22:21:03.462Z,4.83
2019-03-23T22:23:31.846Z,4.97
2019-03-23T22:26:00.233Z,5.23
2019-03-23T22:28:28.618Z,4.63
2019-03-23T22:30:57.010Z,5.00
2019-03-23T22:33:25.375Z,5.20
2019-03-23T22:35:53.766Z,5.47
2019-03-23T22:38:22.147Z,6.17
2019-03-23T22:40:50.534Z,5.30
2019-03-23T22:43:18.916Z,6.33
2019-03-23T22:45:47.332Z,5.47
2019-03-23T22:48:15.734Z,5.27
2019-03-23T22:50:44.229Z,6.23
2019-03-23T22:53:12.631Z,5.90
2019-03-23T22:55:41.009Z,5.53
2019-03-23T22:58:09.399Z,5.33
2019-03-23T23:00:44.388Z,5.20
2019-03-23T23:03:12.807Z,5.17
2019-03-23T23:05:41.282Z,5.07
2019-03-23T23:08:09.653Z,5.43
2019-03-23T23:10:38.127Z,6.80
2019-03-23T23:13:06.532Z,5.13
2019-03-23T23:15:34.937Z,5.43
2019-03-23T23:18:03.307Z,5.57
2019-03-23T23:20:31.709Z,5.80
2019-03-23T23:23:00.092Z,4.80
2019-03-23T23:25:28.478Z,5.40
2019-03-23T23:27:56.873Z,7.17
2019-03-23T23:30:25.252Z,5.70
2019-03-23T23:32:53.776Z,5.90
2019-03-23T23:35:22.164Z,5.40
2019-03-23T23:37:50.636Z,4.70
2019-03-23T23:40:19.911Z,5.10
2019-03-23T23:42:48.319Z,4.87
2019-03-23T23:45:16.700Z,5.53
2019-03-23T23:47:45.106Z,5.97
2019-03-23T23:50:13.777Z,5.47
2019-03-23T23:52:42.216Z,5.10
2019-03-23T23:55:10.719Z,5.67
2019-03-23T23:57:39.100Z,5.50
